Time;durP1;ratioP1;P1;durP2;ratioP2;P2;SDS_P1;SDS_P2;PMS_P1;PMS_P2;Temp;Humidity;BMP_temperature;BMP_pressure;BME280_temperature;BME280_humidity;BME280_pressure;Samples;Min_cycle;Max_cycle;Signal;HPM_P1;HPM_P2
2022/04/16 00:02:03;;;;;;;5.80;2.67;;;;;;;3.97;nan;103224.69;5089891;28;20056;-79
2022/04/16 00:04:29;;;;;;;7.97;2.40;;;;;;;3.94;nan;103236.38;5088762;28;20531;-79
2022/04/16 00:06:58;;;;;;;7.55;2.35;;;;;;;3.94;nan;103235.56;5089603;28;20028;-81
2022/04/16 00:09:24;;;;;;;5.80;2.25;;;;;;;3.94;nan;103238.22;5083712;28;20654;-79
2022/04/16 00:11:50;;;;;;;4.40;2.40;;;;;;;3.93;nan;103236.53;5087144;28;20025;-81
2022/04/16 00:14:16;;;;;;;8.40;2.40;;;;;;;3.92;nan;103238.34;5079998;28;20020;-79
2022/04/16 00:16:44;;;;;;;4.63;2.63;;;;;;;3.92;nan;103235.69;5087045;28;20024;-84
2022/04/16 00:19:11;;;;;;;6.45;2.55;;;;;;;3.91;nan;103234.03;5087705;28;20055;-79
2022/04/16 00:21:40;;;;;;;6.55;2.33;;;;;;;3.93;nan;103232.06;5082896;28;20032;-85
2022/04/16 00:24:07;;;;;;;7.18;2.47;;;;;;;3.94;nan;103238.22;5090236;28;20045;-80
2022/04/16 00:26:38;;;;;;;5.72;2.50;;;;;;;3.93;nan;103237.38;5096943;28;20109;-80
2022/04/16 00:29:08;;;;;;;6.43;2.95;;;;;;;3.97;nan;103247.72;5088624;28;20020;-79
2022/04/16 00:31:34;;;;;;;4.55;2.03;;;;;;;4.00;nan;103236.81;5091787;28;20052;-79
2022/04/16 00:34:01;;;;;;;4.28;2.03;;;;;;;4.04;nan;103243.50;5087481;28;20032;-80
2022/04/16 00:36:27;;;;;;;6.32;2.15;;;;;;;4.06;nan;103241.53;5086319;28;20028;-79
2022/04/16 00:38:52;;;;;;;4.10;1.95;;;;;;;4.06;nan;103238.88;5081574;28;20158;-79
2022/04/16 00:41:18;;;;;;;6.60;2.88;;;;;;;4.05;nan;103238.06;5077736;28;20163;-81
2022/04/16 00:43:44;;;;;;;6.85;2.40;;;;;;;4.07;nan;103232.59;5083976;28;20035;-80
2022/04/16 00:46:09;;;;;;;3.13;2.17;;;;;;;4.05;nan;103231.91;5093609;28;20481;-81
2022/04/16 00:48:35;;;;;;;7.68;2.38;;;;;;;4.03;nan;103236.53;5094149;28;20030;-81
2022/04/16 00:51:01;;;;;;;4.07;2.28;;;;;;;3.97;nan;103237.94;5090752;28;20036;-80
2022/04/16 00:53:29;;;;;;;9.73;2.63;;;;;;;3.98;nan;103246.75;5089240;28;20016;-82
2022/04/16 00:55:57;;;;;;;8.43;2.33;;;;;;;3.94;nan;103247.00;5083845;28;20423;-80
2022/04/16 00:58:23;;;;;;;6.10;2.35;;;;;;;3.94;nan;103254.97;5080097;28;20420;-79
2022/04/16 01:00:48;;;;;;;6.97;2.83;;;;;;;3.94;nan;103252.31;5086282;28;20118;-80
2022/04/16 01:03:14;;;;;;;5.63;2.17;;;;;;;3.97;nan;103255.69;5090957;28;20027;-79
2022/04/16 01:05:40;;;;;;;7.35;2.88;;;;;;;3.98;nan;103260.84;5083813;28;20098;-84
2022/04/16 01:08:06;;;;;;;5.93;2.72;;;;;;;3.99;nan;103272.28;5084135;28;20108;-82
2022/04/16 01:10:33;;;;;;;6.45;2.70;;;;;;;3.99;nan;103272.28;5065414;28;20089;-80
2022/04/16 01:13:02;;;;;;;4.82;2.17;;;;;;;3.95;nan;103271.75;5090900;28;20096;-79
2022/04/16 01:15:29;;;;;;;5.72;2.50;;;;;;;3.94;nan;103268.22;5089007;28;21814;-79
2022/04/16 01:17:56;;;;;;;4.95;2.60;;;;;;;3.94;nan;103275.34;5087249;28;20023;-79
2022/04/16 01:20:22;;;;;;;5.15;2.35;;;;;;;3.94;nan;103270.88;5085605;28;20032;-79
2022/04/16 01:22:50;;;;;;;3.17;1.70;;;;;;;3.94;nan;103281.47;5084897;28;20069;-80
2022/04/16 01:25:16;;;;;;;6.93;2.53;;;;;;;3.93;nan;103278.97;5087898;28;20020;-79
2022/04/16 01:27:46;;;;;;;7.35;2.42;;;;;;;3.91;nan;103275.63;5077594;28;20051;-80
2022/04/16 01:30:15;;;;;;;5.88;2.45;;;;;;;3.90;nan;103284.56;5088523;28;20028;-81
2022/04/16 01:32:41;;;;;;;8.82;2.63;;;;;;;3.86;nan;103284.03;5080902;28;20056;-81
2022/04/16 01:35:07;;;;;;;5.50;2.28;;;;;;;3.85;nan;103286.81;5081747;28;20037;-79
2022/04/16 01:37:34;;;;;;;6.30;2.30;;;;;;;3.85;nan;103281.50;5088773;28;20027;-80
2022/04/16 01:40:05;;;;;;;7.50;2.00;;;;;;;3.82;nan;103289.75;5086794;28;20031;-79
2022/04/16 01:42:32;;;;;;;5.38;2.40;;;;;;;3.82;nan;103277.34;5092595;28;20618;-82
2022/04/16 01:45:05;;;;;;;6.25;2.30;;;;;;;3.83;nan;103280.81;5083549;28;20095;-83
2022/04/16 01:47:31;;;;;;;4.85;1.80;;;;;;;3.81;nan;103282.78;5080539;28;20036;-80
2022/04/16 01:49:57;;;;;;;3.42;2.42;;;;;;;3.81;nan;103298.69;5082494;28;20091;-84
2022/04/16 01:52:23;;;;;;;6.10;1.95;;;;;;;3.78;nan;103299.81;5078229;28;20039;-81
2022/04/16 01:54:50;;;;;;;5.22;1.77;;;;;;;3.73;nan;103299.38;5082736;28;20016;-81
2022/04/16 01:57:19;;;;;;;6.13;2.50;;;;;;;3.70;nan;103291.72;5078794;28;20034;-80
2022/04/16 01:59:48;;;;;;;3.95;2.05;;;;;;;3.66;nan;103292.97;5082205;28;20036;-81
2022/04/16 02:02:15;;;;;;;4.97;2.40;;;;;;;3.64;nan;103292.28;5079049;28;20099;-83
2022/04/16 02:04:41;;;;;;;6.53;1.88;;;;;;;3.59;nan;103291.84;5082287;28;20036;-83
2022/04/16 02:07:07;;;;;;;4.43;1.55;;;;;;;3.55;nan;103293.09;5081199;28;20020;-82
2022/04/16 02:09:33;;;;;;;4.82;1.98;;;;;;;3.51;nan;103299.66;5065661;28;20017;-80
2022/04/16 02:11:59;;;;;;;7.05;2.03;;;;;;;3.48;nan;103289.34;5080527;28;20019;-80
2022/04/16 02:14:24;;;;;;;5.32;2.15;;;;;;;3.46;nan;103304.56;5084813;28;20024;-82
2022/04/16 02:16:50;;;;;;;4.57;2.58;;;;;;;3.42;nan;103296.06;5080470;28;20135;-81
2022/04/16 02:19:16;;;;;;;4.45;1.65;;;;;;;3.41;nan;103296.16;5082311;28;20036;-80
2022/04/16 02:21:42;;;;;;;7.53;2.22;;;;;;;3.39;nan;103300.78;5077615;28;20034;-82
2022/04/16 02:24:08;;;;;;;5.90;2.20;;;;;;;3.29;nan;103301.63;5080635;28;20095;-81
2022/04/16 02:26:34;;;;;;;6.30;2.08;;;;;;;3.23;nan;103306.59;5080176;28;20114;-79
2022/04/16 02:29:00;;;;;;;8.00;2.60;;;;;;;3.23;nan;103302.16;5076193;28;20031;-82
2022/04/16 02:31:29;;;;;;;5.65;2.10;;;;;;;3.21;nan;103303.25;5079660;28;20089;-81
2022/04/16 02:33:55;;;;;;;4.22;2.38;;;;;;;3.21;nan;103306.75;5081989;28;20074;-81
2022/04/16 02:36:27;;;;;;;6.75;2.00;;;;;;;3.16;nan;103298.38;5082312;28;20024;-81
2022/04/16 02:38:57;;;;;;;8.60;2.28;;;;;;;3.13;nan;103300.47;5085910;28;20016;-81
2022/04/16 02:41:24;;;;;;;9.88;2.92;;;;;;;3.08;nan;103300.88;5077205;28;20037;-82
2022/04/16 02:43:50;;;;;;;5.50;1.88;;;;;;;3.06;nan;103297.53;5077511;28;20043;-82
2022/04/16 02:49:00;;;;;;;5.75;2.72;;;;;;;3.02;nan;103299.59;5078919;28;20043;-83
2022/04/16 02:51:26;;;;;;;6.90;2.70;;;;;;;3.07;nan;103295.72;5077769;28;20020;-80
2022/04/16 02:53:52;;;;;;;5.05;2.45;;;;;;;3.07;nan;103301.03;5084467;28;20032;-81
2022/04/16 02:56:18;;;;;;;5.47;2.28;;;;;;;3.04;nan;103302.94;5082234;28;20084;-82
2022/04/16 02:58:43;;;;;;;6.45;2.42;;;;;;;2.99;nan;103301.69;5079086;28;20020;-84
2022/04/16 03:01:09;;;;;;;4.95;1.95;;;;;;;2.91;nan;103305.03;5076830;28;20024;-81
2022/04/16 03:03:35;;;;;;;6.70;2.72;;;;;;;2.87;nan;103311.56;5080575;28;20024;-85
2022/04/16 03:06:00;;;;;;;6.93;2.42;;;;;;;2.86;nan;103311.69;5082152;28;20057;-79
2022/04/16 03:08:26;;;;;;;6.53;3.05;;;;;;;2.88;nan;103315.06;5082998;28;20028;-81
2022/04/16 03:10:52;;;;;;;8.27;2.22;;;;;;;2.89;nan;103319.38;5078323;28;20028;-82
2022/04/16 03:13:19;;;;;;;6.50;2.65;;;;;;;2.88;nan;103323.00;5083064;28;20024;-80
2022/04/16 03:18:29;;;;;;;8.23;2.42;;;;;;;2.87;nan;103326.59;5086218;28;20613;-84
2022/04/16 03:20:55;;;;;;;6.88;2.55;;;;;;;2.88;nan;103336.25;5086815;28;20028;-80
2022/04/16 03:23:20;;;;;;;5.65;2.75;;;;;;;2.87;nan;103331.88;5084603;28;20492;-81
2022/04/16 03:25:48;;;;;;;6.88;2.63;;;;;;;2.85;nan;103345.25;5089856;28;20027;-81
2022/04/16 03:28:14;;;;;;;5.35;2.42;;;;;;;2.84;nan;103346.22;5070791;28;20512;-81
2022/04/16 03:30:40;;;;;;;7.97;2.80;;;;;;;2.85;nan;103339.13;5084029;28;20063;-85
2022/04/16 03:33:06;;;;;;;6.70;2.60;;;;;;;2.85;nan;103341.78;5080340;28;20040;-86
2022/04/16 03:35:34;;;;;;;5.38;2.80;;;;;;;2.85;nan;103352.38;5090233;28;20036;-84
2022/04/16 03:37:59;;;;;;;5.63;2.55;;;;;;;2.82;nan;103356.13;5081836;28;20031;-84
2022/04/16 03:40:26;;;;;;;9.35;3.10;;;;;;;2.82;nan;103352.63;5084109;28;20095;-80
2022/04/16 03:42:56;;;;;;;7.25;2.90;;;;;;;2.82;nan;103348.19;5084218;28;20043;-83
2022/04/16 03:45:29;;;;;;;7.43;2.72;;;;;;;2.80;nan;103358.06;5081295;28;20117;-82
2022/04/16 03:47:56;;;;;;;8.80;2.55;;;;;;;2.80;nan;103360.72;5077896;28;20157;-80
2022/04/16 03:50:23;;;;;;;9.38;2.72;;;;;;;2.77;nan;103354.84;5079744;28;20019;-82
2022/04/16 03:52:50;;;;;;;8.02;2.75;;;;;;;2.75;nan;103356.81;5077818;28;20038;-82
2022/04/16 04:00:47;;;;;;;6.22;2.17;;;;;;;2.73;nan;103372.81;5082300;28;20094;-83
2022/04/16 04:03:13;;;;;;;5.88;2.17;;;;;;;2.75;nan;103375.34;5083430;28;20032;-81
2022/04/16 04:05:39;;;;;;;7.35;2.65;;;;;;;2.75;nan;103385.91;5083107;28;20028;-80
2022/04/16 04:08:06;;;;;;;6.80;2.47;;;;;;;2.75;nan;103376.16;5078344;28;20027;-82
2022/04/16 04:10:32;;;;;;;6.32;2.95;;;;;;;2.76;nan;103374.34;5081074;28;20178;-81
2022/04/16 04:12:58;;;;;;;6.20;2.55;;;;;;;2.75;nan;103380.63;5080644;28;20028;-85
2022/04/16 04:15:27;;;;;;;7.55;3.05;;;;;;;2.73;nan;103384.25;5084909;28;20435;-80
2022/04/16 04:17:54;;;;;;;10.93;3.25;;;;;;;2.72;nan;103387.03;5080134;28;20039;-82
2022/04/16 04:20:20;;;;;;;6.47;2.97;;;;;;;2.72;nan;103382.56;5079991;28;20585;-81
2022/04/16 04:22:48;;;;;;;6.15;2.47;;;;;;;2.73;nan;103384.25;5082874;22;20610;-60
2022/04/16 04:25:13;;;;;;;6.30;2.75;;;;;;;2.76;nan;103395.53;5041730;28;20077;-60
2022/04/16 04:27:39;;;;;;;8.02;3.08;;;;;;;2.79;nan;103403.22;5044172;28;20413;-59
2022/04/16 04:30:05;;;;;;;8.65;2.85;;;;;;;2.80;nan;103402.25;5043369;28;20021;-60
2022/04/16 04:32:31;;;;;;;6.38;2.85;;;;;;;2.82;nan;103405.59;5042323;28;20029;-60
2022/04/16 04:34:57;;;;;;;6.07;2.90;;;;;;;2.81;nan;103407.41;5044217;28;20536;-60
2022/04/16 04:37:23;;;;;;;6.22;2.30;;;;;;;2.85;nan;103415.91;5039041;28;20509;-60
2022/04/16 04:39:49;;;;;;;4.97;2.47;;;;;;;2.87;nan;103421.91;5041203;28;20155;-59
2022/04/16 04:42:25;;;;;;;7.97;2.97;;;;;;;2.86;nan;103420.25;5038880;28;20022;-60
2022/04/16 04:44:51;;;;;;;6.10;2.22;;;;;;;2.91;nan;103424.19;5036688;28;20524;-60
2022/04/16 04:47:16;;;;;;;6.28;3.03;;;;;;;2.95;nan;103430.91;5042940;28;20040;-59
2022/04/16 04:49:42;;;;;;;7.72;2.55;;;;;;;2.99;nan;103426.16;5037871;28;20049;-60
2022/04/16 04:52:07;;;;;;;7.80;3.05;;;;;;;3.03;nan;103438.16;5043356;28;20109;-59
2022/04/16 04:54:33;;;;;;;9.05;2.80;;;;;;;3.06;nan;103434.44;5043674;28;20024;-60
2022/04/16 04:56:58;;;;;;;12.00;3.13;;;;;;;3.09;nan;103429.72;5040463;28;20037;-60
2022/04/16 04:59:24;;;;;;;8.10;2.63;;;;;;;3.12;nan;103440.03;5038738;28;20040;-60
2022/04/16 05:01:50;;;;;;;7.63;2.72;;;;;;;3.17;nan;103434.31;5036485;28;20028;-60
2022/04/16 05:04:15;;;;;;;7.65;2.67;;;;;;;3.23;nan;103439.09;5041514;28;20451;-60
2022/04/16 05:06:41;;;;;;;6.00;2.47;;;;;;;3.32;nan;103438.28;5039144;28;20478;-60
2022/04/16 05:09:07;;;;;;;9.38;2.60;;;;;;;3.37;nan;103449.31;5043443;28;20052;-60
2022/04/16 05:11:33;;;;;;;4.95;2.20;;;;;;;3.44;nan;103449.63;5036572;28;20064;-60
2022/04/16 05:13:58;;;;;;;4.55;2.40;;;;;;;3.49;nan;103445.59;5038009;28;20028;-60
2022/04/16 05:16:24;;;;;;;7.28;2.80;;;;;;;3.56;nan;103453.84;5038386;28;20644;-60
2022/04/16 05:18:50;;;;;;;4.80;2.33;;;;;;;3.62;nan;103458.63;5040660;28;20094;-60
2022/04/16 05:21:15;;;;;;;7.82;3.17;;;;;;;3.66;nan;103462.66;5038042;28;20025;-60
2022/04/16 05:23:41;;;;;;;5.05;2.60;;;;;;;3.72;nan;103463.94;5041501;28;20104;-60
2022/04/16 05:26:08;;;;;;;9.23;2.50;;;;;;;3.81;nan;103465.78;5036661;28;20546;-61
2022/04/16 05:28:34;;;;;;;3.88;1.98;;;;;;;3.88;nan;103467.72;5036774;28;20064;-59
2022/04/16 05:31:02;;;;;;;4.38;2.40;;;;;;;3.93;nan;103467.31;5039701;28;20060;-61
2022/04/16 05:36:12;;;;;;;5.05;2.20;;;;;;;4.04;nan;103472.50;5038430;28;20039;-61
2022/04/16 05:38:37;;;;;;;7.40;2.65;;;;;;;4.14;nan;103477.81;5041026;28;20123;-61
2022/04/16 05:41:03;;;;;;;5.13;2.08;;;;;;;4.23;nan;103471.66;5039844;28;20028;-60
2022/04/16 05:43:29;;;;;;;6.30;2.47;;;;;;;4.30;nan;103472.78;5037147;28;20025;-61
2022/04/16 05:45:54;;;;;;;7.03;2.30;;;;;;;4.40;nan;103472.78;5041831;28;20028;-60
2022/04/16 05:48:20;;;;;;;6.95;2.67;;;;;;;4.48;nan;103481.69;5038476;28;20104;-60
2022/04/16 05:50:46;;;;;;;6.65;2.55;;;;;;;4.59;nan;103482.53;5040708;28;20292;-61
2022/04/16 05:53:13;;;;;;;6.40;3.05;;;;;;;4.68;nan;103487.84;5039303;28;20022;-60
2022/04/16 05:55:40;;;;;;;10.40;2.53;;;;;;;4.78;nan;103480.69;5038440;28;21024;-61
2022/04/16 05:58:07;;;;;;;6.18;2.88;;;;;;;4.87;nan;103484.31;5036970;28;20423;-61
2022/04/16 06:00:33;;;;;;;4.45;2.40;;;;;;;4.95;nan;103480.94;5042244;28;20035;-60
2022/04/16 06:02:59;;;;;;;6.45;2.60;;;;;;;5.04;nan;103483.59;5035254;28;20143;-60
2022/04/16 06:05:24;;;;;;;6.20;2.42;;;;;;;5.13;nan;103485.34;5035926;28;20107;-60
2022/04/16 06:07:50;;;;;;;6.40;2.55;;;;;;;5.24;nan;103483.50;5037943;28;20052;-60
2022/04/16 06:10:16;;;;;;;6.15;2.60;;;;;;;5.33;nan;103482.63;5038706;28;20155;-61
2022/04/16 06:12:41;;;;;;;8.40;2.85;;;;;;;5.39;nan;103485.53;5043691;28;20025;-61
2022/04/16 06:15:07;;;;;;;6.53;2.53;;;;;;;5.47;nan;103480.31;5040709;28;20530;-61
2022/04/16 06:17:34;;;;;;;4.15;2.22;;;;;;;5.58;nan;103495.25;5039828;28;20075;-61
2022/04/16 06:19:59;;;;;;;6.30;2.00;;;;;;;5.68;nan;103501.34;5040435;28;20082;-60
2022/04/16 06:22:25;;;;;;;9.07;2.67;;;;;;;5.82;nan;103499.16;5041886;28;20021;-61
2022/04/16 06:24:50;;;;;;;4.32;2.22;;;;;;;5.89;nan;103501.06;5037281;28;20036;-61
2022/04/16 06:27:16;;;;;;;6.82;2.30;;;;;;;5.98;nan;103502.03;5040737;28;20421;-59
2022/04/16 06:29:41;;;;;;;4.20;1.90;;;;;;;6.08;nan;103502.78;5039741;28;20029;-60
2022/04/16 06:32:07;;;;;;;5.10;1.67;;;;;;;6.15;nan;103505.72;5039740;28;20490;-60
2022/04/16 06:34:33;;;;;;;7.93;1.77;;;;;;;6.23;nan;103497.78;5043313;28;20032;-60
2022/04/16 06:36:59;;;;;;;4.55;1.88;;;;;;;6.32;nan;103497.72;5040927;28;20075;-60
2022/04/16 06:39:26;;;;;;;3.35;1.95;;;;;;;6.42;nan;103502.97;5037607;28;20021;-61
2022/04/16 06:41:51;;;;;;;4.75;1.95;;;;;;;6.52;nan;103505.56;5041999;28;20064;-60
2022/04/16 06:44:17;;;;;;;7.68;2.00;;;;;;;6.62;nan;103504.44;5041588;28;20032;-60
2022/04/16 06:46:42;;;;;;;9.35;2.15;;;;;;;6.72;nan;103499.03;5043349;28;20020;-60
2022/04/16 06:49:08;;;;;;;5.15;1.67;;;;;;;6.86;nan;103506.47;5045770;28;20056;-61
2022/04/16 06:51:34;;;;;;;8.65;2.40;;;;;;;6.99;nan;103506.03;5045167;28;20033;-61
2022/04/16 06:53:59;;;;;;;6.28;1.85;;;;;;;7.11;nan;103509.28;5041535;28;20021;-60
2022/04/16 06:56:25;;;;;;;5.40;2.05;;;;;;;7.25;nan;103514.88;5042730;28;20032;-59
2022/04/16 06:58:50;;;;;;;3.97;1.90;;;;;;;7.35;nan;103514.75;5045529;28;20086;-60
2022/04/16 07:01:16;;;;;;;4.18;2.05;;;;;;;7.44;nan;103513.81;5042648;28;20721;-60
2022/04/16 07:03:42;;;;;;;4.30;2.00;;;;;;;7.56;nan;103522.38;5043668;28;20431;-60
2022/04/16 07:06:07;;;;;;;3.80;1.85;;;;;;;7.63;nan;103518.06;5043109;28;20032;-59
2022/04/16 07:08:33;;;;;;;4.40;1.85;;;;;;;7.71;nan;103526.06;5039803;28;20035;-60
2022/04/16 07:10:58;;;;;;;7.82;1.70;;;;;;;7.80;nan;103521.63;5044197;28;20091;-60
2022/04/16 07:13:24;;;;;;;5.15;1.65;;;;;;;7.81;nan;103521.47;5043949;28;20032;-60
2022/04/16 07:15:49;;;;;;;3.40;1.10;;;;;;;7.87;nan;103518.13;5044072;28;20394;-61
2022/04/16 07:18:15;;;;;;;1.60;1.30;;;;;;;7.92;nan;103515.00;5043239;28;21057;-59
2022/04/16 07:20:42;;;;;;;1.52;0.70;;;;;;;7.99;nan;103516.00;5042259;28;20036;-61
2022/04/16 07:23:08;;;;;;;2.10;1.30;;;;;;;8.09;nan;103524.72;5040843;28;20037;-61
2022/04/16 07:25:34;;;;;;;1.38;0.80;;;;;;;8.21;nan;103519.88;5038772;28;20500;-72
2022/04/16 07:28:00;;;;;;;3.65;0.85;;;;;;;8.31;nan;103515.22;5045137;28;20024;-61
2022/04/16 07:30:27;;;;;;;2.28;0.70;;;;;;;8.40;nan;103521.44;5041979;28;20115;-61
2022/04/16 07:32:53;;;;;;;2.42;0.77;;;;;;;8.42;nan;103525.59;5040470;28;20364;-61
2022/04/16 07:35:19;;;;;;;1.73;1.10;;;;;;;8.42;nan;103530.09;5037739;28;20028;-60
2022/04/16 07:37:46;;;;;;;2.53;0.90;;;;;;;8.52;nan;103532.63;5039749;28;20517;-60
2022/04/16 07:40:12;;;;;;;6.70;2.70;;;;;;;8.64;nan;103540.16;5043497;28;20087;-60
2022/04/16 07:42:38;;;;;;;3.65;2.20;;;;;;;8.75;nan;103547.81;5040680;28;20028;-60
2022/04/16 07:45:04;;;;;;;1.70;1.25;;;;;;;8.84;nan;103543.34;5037955;28;20025;-61
2022/04/16 07:47:30;;;;;;;2.55;0.90;;;;;;;8.91;nan;103541.63;5035585;28;20417;-59
2022/04/16 07:49:56;;;;;;;0.80;0.60;;;;;;;8.99;nan;103540.81;5036783;28;20036;-59
2022/04/16 07:52:24;;;;;;;3.00;0.80;;;;;;;9.01;nan;103541.47;5036169;28;20021;-60
2022/04/16 07:54:51;;;;;;;3.20;0.60;;;;;;;9.03;nan;103545.66;5042587;28;20048;-60
2022/04/16 07:57:17;;;;;;;1.38;0.45;;;;;;;9.10;nan;103545.78;5036268;28;20456;-59
2022/04/16 07:59:42;;;;;;;1.85;1.20;;;;;;;9.20;nan;103545.63;5040225;28;20033;-60
2022/04/16 08:02:08;;;;;;;1.65;0.73;;;;;;;9.28;nan;103551.78;5037333;28;20041;-60
2022/04/16 08:04:33;;;;;;;0.85;0.50;;;;;;;9.37;nan;103550.75;5040896;28;20032;-60
2022/04/16 08:06:58;;;;;;;2.28;0.63;;;;;;;9.49;nan;103553.03;5035063;28;20063;-60
2022/04/16 08:09:24;;;;;;;1.55;0.75;;;;;;;9.53;nan;103557.06;5039570;28;20033;-60
2022/04/16 08:11:50;;;;;;;1.55;0.70;;;;;;;9.59;nan;103556.38;5042665;28;20032;-60
2022/04/16 08:14:15;;;;;;;3.35;0.70;;;;;;;9.63;nan;103544.31;5040518;28;20893;-61
2022/04/16 08:16:41;;;;;;;0.82;0.77;;;;;;;9.76;nan;103549.09;5038594;28;20035;-60
2022/04/16 08:19:06;;;;;;;4.13;1.17;;;;;;;9.87;nan;103554.06;5041576;28;20048;-61
2022/04/16 08:21:34;;;;;;;0.73;0.70;;;;;;;9.86;nan;103550.53;5039754;28;20154;-61
2022/04/16 08:24:12;;;;;;;1.45;1.00;;;;;;;9.83;nan;103555.44;5038487;28;20084;-61
2022/04/16 08:26:38;;;;;;;2.50;1.35;;;;;;;9.77;nan;103556.97;5041794;28;20040;-60
2022/04/16 08:29:04;;;;;;;2.30;0.70;;;;;;;9.81;nan;103555.59;5041467;28;20028;-62
2022/04/16 08:31:29;;;;;;;2.95;0.80;;;;;;;9.81;nan;103560.13;5042517;28;20036;-61
2022/04/16 08:33:55;;;;;;;1.02;0.90;;;;;;;9.82;nan;103554.59;5040260;28;20100;-61
2022/04/16 08:36:21;;;;;;;1.83;0.70;;;;;;;9.94;nan;103558.56;5036070;28;20037;-61
2022/04/16 08:38:46;;;;;;;1.38;1.00;;;;;;;10.09;nan;103557.81;5043274;28;20112;-60
2022/04/16 08:41:13;;;;;;;3.08;0.90;;;;;;;10.20;nan;103562.75;5042539;28;20040;-59
2022/04/16 08:43:43;;;;;;;2.08;0.70;;;;;;;10.33;nan;103552.31;5039534;28;20039;-60
2022/04/16 08:46:09;;;;;;;3.30;1.10;;;;;;;10.54;nan;103557.03;5042527;28;20419;-61
2022/04/16 08:48:36;;;;;;;1.33;0.98;;;;;;;10.72;nan;103562.91;5043082;28;20033;-60
2022/04/16 08:51:02;;;;;;;2.90;1.02;;;;;;;10.77;nan;103557.00;5042886;28;20026;-61
2022/04/16 08:53:28;;;;;;;3.70;1.20;;;;;;;10.83;nan;103557.13;5041971;28;20112;-60
2022/04/16 08:55:54;;;;;;;2.15;0.80;;;;;;;10.93;nan;103564.91;5043474;28;20154;-60
2022/04/16 08:58:19;;;;;;;1.60;1.02;;;;;;;10.90;nan;103570.63;5035648;28;20032;-61
2022/04/16 09:00:45;;;;;;;1.60;1.20;;;;;;;10.94;nan;103566.56;5036390;28;20080;-64
2022/04/16 09:03:11;;;;;;;2.63;1.52;;;;;;;10.99;nan;103560.69;5040712;28;20056;-60
2022/04/16 09:05:37;;;;;;;2.80;1.60;;;;;;;11.07;nan;103561.41;5036152;28;20074;-60
2022/04/16 09:08:07;;;;;;;2.53;1.38;;;;;;;11.19;nan;103562.66;5041154;28;20495;-61
2022/04/16 09:10:36;;;;;;;4.18;1.90;;;;;;;11.31;nan;103564.88;5038820;28;20036;-60
2022/04/16 09:13:04;;;;;;;4.68;1.95;;;;;;;11.46;nan;103557.66;5038593;28;20115;-61
2022/04/16 09:15:34;;;;;;;2.90;1.67;;;;;;;11.57;nan;103567.09;5039978;28;20549;-62
2022/04/16 09:18:04;;;;;;;3.85;2.10;;;;;;;11.71;nan;103569.78;5039714;28;20070;-61
2022/04/16 09:20:31;;;;;;;3.75;2.10;;;;;;;11.78;nan;103557.28;5040046;28;20479;-61
2022/04/16 09:22:57;;;;;;;4.78;2.30;;;;;;;11.87;nan;103558.03;5041339;28;20056;-61
2022/04/16 09:25:22;;;;;;;5.60;2.50;;;;;;;11.95;nan;103560.59;5039569;28;20029;-61
2022/04/16 09:27:50;;;;;;;5.32;2.40;;;;;;;12.03;nan;103554.31;5039188;28;20487;-60
2022/04/16 09:30:28;;;;;;;3.42;1.90;;;;;;;11.93;nan;103553.75;5038454;28;20455;-60
2022/04/16 09:32:56;;;;;;;3.67;1.88;;;;;;;11.89;nan;103549.78;5037628;28;20033;-60
2022/04/16 09:35:40;;;;;;;2.38;1.77;;;;;;;11.88;nan;103546.28;5037229;28;20552;-60
2022/04/16 09:38:10;;;;;;;3.00;1.50;;;;;;;12.03;nan;103541.69;5040843;28;20559;-60
2022/04/16 09:40:36;;;;;;;5.10;1.63;;;;;;;12.09;nan;103538.25;5036709;28;20058;-61
2022/04/16 09:43:06;;;;;;;6.53;2.00;;;;;;;12.16;nan;103554.44;5038987;28;20033;-61
2022/04/16 09:45:33;;;;;;;3.42;1.50;;;;;;;12.25;nan;103547.09;5041146;28;20147;-60
2022/04/16 09:47:59;;;;;;;2.92;1.30;;;;;;;12.30;nan;103550.84;5044401;28;20028;-61
2022/04/16 09:50:27;;;;;;;3.30;1.35;;;;;;;12.29;nan;103546.50;5040508;28;20086;-62
2022/04/16 09:52:57;;;;;;;8.85;1.80;;;;;;;12.34;nan;103543.25;5039197;28;20025;-61
2022/04/16 09:55:25;;;;;;;3.22;1.20;;;;;;;12.47;nan;103539.84;5040323;28;20556;-60
2022/04/16 09:57:53;;;;;;;3.28;1.30;;;;;;;12.62;nan;103551.38;5036925;28;20498;-61
2022/04/16 10:00:19;;;;;;;3.55;1.70;;;;;;;12.70;nan;103548.53;5043109;28;20514;-61
2022/04/16 10:02:46;;;;;;;1.88;0.93;;;;;;;12.74;nan;103549.81;5040279;28;20029;-61
2022/04/16 10:05:12;;;;;;;4.00;1.10;;;;;;;12.85;nan;103546.59;5034745;28;20466;-61
2022/04/16 10:07:38;;;;;;;3.58;1.27;;;;;;;12.93;nan;103546.47;5037843;28;20082;-61
2022/04/16 10:10:17;;;;;;;2.33;0.90;;;;;;;13.00;nan;103552.72;5039204;28;20991;-60
2022/04/16 10:13:00;;;;;;;2.03;1.02;;;;;;;13.09;nan;103542.63;5040645;28;20021;-61
2022/04/16 10:15:57;;;;;;;1.63;0.90;;;;;;;13.11;nan;103545.16;5036391;28;20029;-61
2022/04/16 10:18:24;;;;;;;1.83;1.10;;;;;;;13.22;nan;103550.00;5039861;28;20042;-61
2022/04/16 10:20:57;;;;;;;4.18;1.23;;;;;;;13.26;nan;103532.41;5040274;28;20154;-61
2022/04/16 10:23:27;;;;;;;2.20;1.27;;;;;;;13.37;nan;103545.31;5041916;28;20017;-61
2022/04/16 10:26:01;;;;;;;3.70;1.27;;;;;;;13.40;nan;103534.16;5038296;28;20495;-61
2022/04/16 10:28:33;;;;;;;4.50;1.45;;;;;;;13.44;nan;103540.78;5047045;28;20464;-61
2022/04/16 10:30:59;;;;;;;2.47;1.17;;;;;;;13.57;nan;103540.88;5045183;28;20059;-60
2022/04/16 10:33:33;;;;;;;2.05;1.10;;;;;;;13.77;nan;103532.03;5047326;28;20095;-61
2022/04/16 10:36:05;;;;;;;2.53;1.27;;;;;;;13.91;nan;103536.44;5039189;28;20663;-61
2022/04/16 10:38:40;;;;;;;2.38;1.35;;;;;;;14.00;nan;103545.16;5046601;28;20091;-61
2022/04/16 10:41:14;;;;;;;1.52;1.02;;;;;;;13.99;nan;103530.84;5040453;28;20107;-61
2022/04/16 10:43:40;;;;;;;1.95;1.00;;;;;;;14.04;nan;103528.41;5044823;28;20040;-61
2022/04/16 10:46:09;;;;;;;2.80;0.77;;;;;;;14.11;nan;103529.25;5043637;28;20406;-61
2022/04/16 10:48:39;;;;;;;4.68;1.60;;;;;;;14.17;nan;103530.28;5044841;28;20025;-61
2022/04/16 10:51:06;;;;;;;3.53;1.10;;;;;;;14.30;nan;103540.28;5043961;28;20021;-61
2022/04/16 10:53:34;;;;;;;2.70;1.38;;;;;;;14.27;nan;103538.00;5042976;28;20175;-61
2022/04/16 10:56:22;;;;;;;4.30;1.10;;;;;;;14.15;nan;103535.88;5040995;28;20032;-61
2022/04/16 10:59:00;;;;;;;2.10;1.30;;;;;;;14.28;nan;103536.94;5041631;28;20021;-61
2022/04/16 11:01:27;;;;;;;1.63;1.00;;;;;;;14.40;nan;103538.84;5042379;28;20071;-61
2022/04/16 11:03:54;;;;;;;3.58;1.00;;;;;;;14.46;nan;103539.91;5038775;28;20028;-61
2022/04/16 11:06:20;;;;;;;2.22;0.98;;;;;;;14.44;nan;103540.13;5040750;28;20028;-61
2022/04/16 11:08:47;;;;;;;2.17;0.98;;;;;;;14.45;nan;103540.94;5043514;28;20029;-61
2022/04/16 11:11:14;;;;;;;2.97;1.10;;;;;;;14.48;nan;103535.13;5045311;28;20052;-61
2022/04/16 11:13:42;;;;;;;2.90;1.10;;;;;;;14.62;nan;103536.81;5038514;28;20029;-61
2022/04/16 11:16:09;;;;;;;2.28;0.90;;;;;;;14.73;nan;103541.59;5042596;28;20025;-61
2022/04/16 11:18:45;;;;;;;2.20;1.13;;;;;;;14.81;nan;103538.69;5038876;28;20036;-61
2022/04/16 11:21:25;;;;;;;3.25;1.10;;;;;;;14.79;nan;103542.63;5040804;28;20522;-61
2022/04/16 11:23:52;;;;;;;2.35;1.25;;;;;;;14.84;nan;103539.28;5043341;28;20063;-63
2022/04/16 11:34:55;;;;;;;2.22;0.95;;;;;;;14.99;nan;103539.91;5036465;28;20119;-61
2022/04/16 11:37:21;;;;;;;3.08;1.00;;;;;;;15.05;nan;103544.44;5043623;28;20050;-61
2022/04/16 11:40:01;;;;;;;2.28;1.20;;;;;;;15.09;nan;103540.31;5039659;28;20032;-61
2022/04/16 11:42:27;;;;;;;2.55;1.15;;;;;;;15.26;nan;103540.66;5042861;28;20064;-61
2022/04/16 11:44:53;;;;;;;3.35;1.00;;;;;;;15.27;nan;103537.78;5040037;28;20065;-61
2022/04/16 11:47:23;;;;;;;1.95;1.08;;;;;;;15.34;nan;103526.94;5040547;28;20107;-61
2022/04/16 11:49:58;;;;;;;3.08;1.15;;;;;;;15.43;nan;103522.97;5038826;28;20028;-61
2022/04/16 11:52:24;;;;;;;2.00;0.90;;;;;;;15.49;nan;103530.22;5042837;28;20070;-61
2022/04/16 11:55:19;;;;;;;2.53;1.20;;;;;;;15.52;nan;103528.97;5039434;28;20523;-62
2022/04/16 11:57:53;;;;;;;;;;;;;;;15.43;nan;103523.78;5029955;28;20479;-61
2022/04/16 12:00:20;;;;;;;1.33;0.90;;;;;;;15.61;nan;103530.41;5038394;28;20019;-61
2022/04/16 12:02:49;;;;;;;1.77;1.23;;;;;;;15.80;nan;103512.44;5036650;28;20037;-61
2022/04/16 12:05:25;;;;;;;1.42;1.02;;;;;;;16.05;nan;103510.66;5036981;28;20025;-61
2022/04/16 12:07:53;;;;;;;2.47;1.35;;;;;;;16.27;nan;103516.53;5037968;28;20078;-61
2022/04/16 12:10:19;;;;;;;2.28;1.20;;;;;;;16.33;nan;103519.19;5036332;28;20033;-62
2022/04/16 12:12:49;;;;;;;1.77;0.93;;;;;;;16.39;nan;103487.72;5039802;28;20028;-62